sensor_id;sensor_type;location;lat;lon;timestamp;P1;durP1;ratioP1;P2;durP2;ratioP2
8887;SDS011;4480;52.370;9.748;2023-04-10T00:01:02;52.40;;;35.10;;
8887;SDS011;4480;52.370;9.748;2023-04-10T00:03:30;49.63;;;34.45;;
8887;SDS011;4480;52.370;9.748;2023-04-10T00:05:59;53.15;;;33.58;;
8887;SDS011;4480;52.370;9.748;2023-04-10T00:08:26;50.67;;;33.72;;
8887;SDS011;4480;52.370;9.748;2023-04-10T00:10:52;52.75;;;33.70;;
8887;SDS011;4480;52.370;9.748;2023-04-10T00:13:20;53.70;;;35.13;;
8887;SDS011;4480;52.370;9.748;2023-04-10T00:15:47;53.45;;;35.92;;
8887;SDS011;4480;52.370;9.748;2023-04-10T00:18:14;49.90;;;35.25;;
8887;SDS011;4480;52.370;9.748;2023-04-10T00:20:40;50.42;;;34.30;;
8887;SDS011;4480;52.370;9.748;2023-04-10T00:23:09;57.83;;;35.53;;
8887;SDS011;4480;52.370;9.748;2023-04-10T00:25:36;51.95;;;35.72;;
8887;SDS011;4480;52.370;9.748;2023-04-10T00:28:03;53.22;;;33.30;;
8887;SDS011;4480;52.370;9.748;2023-04-10T00:30:30;50.17;;;34.03;;
8887;SDS011;4480;52.370;9.748;2023-04-10T00:32:57;53.75;;;35.58;;
8887;SDS011;4480;52.370;9.748;2023-04-10T00:35:24;53.50;;;35.55;;
8887;SDS011;4480;52.370;9.748;2023-04-10T00:37:52;51.63;;;35.08;;
8887;SDS011;4480;52.370;9.748;2023-04-10T00:40:22;48.47;;;35.10;;
8887;SDS011;4480;52.370;9.748;2023-04-10T00:42:49;54.85;;;36.45;;
8887;SDS011;4480;52.370;9.748;2023-04-10T00:45:16;56.92;;;35.08;;
8887;SDS011;4480;52.370;9.748;2023-04-10T00:47:44;53.92;;;36.08;;
8887;SDS011;4480;52.370;9.748;2023-04-10T00:50:11;59.72;;;38.13;;
8887;SDS011;4480;52.370;9.748;2023-04-10T00:52:38;51.70;;;35.33;;
8887;SDS011;4480;52.370;9.748;2023-04-10T00:55:06;55.67;;;38.13;;
8887;SDS011;4480;52.370;9.748;2023-04-10T00:57:35;55.30;;;36.90;;
8887;SDS011;4480;52.370;9.748;2023-04-10T01:00:03;51.25;;;34.45;;
8887;SDS011;4480;52.370;9.748;2023-04-10T01:02:30;54.20;;;35.25;;
8887;SDS011;4480;52.370;9.748;2023-04-10T01:04:57;54.38;;;35.38;;
8887;SDS011;4480;52.370;9.748;2023-04-10T01:07:26;51.55;;;35.83;;
8887;SDS011;4480;52.370;9.748;2023-04-10T01:10:03;59.85;;;37.20;;
8887;SDS011;4480;52.370;9.748;2023-04-10T01:12:42;55.72;;;36.17;;
8887;SDS011;4480;52.370;9.748;2023-04-10T01:15:18;54.90;;;36.00;;
8887;SDS011;4480;52.370;9.748;2023-04-10T01:17:49;53.00;;;37.53;;
8887;SDS011;4480;52.370;9.748;2023-04-10T01:20:21;56.28;;;36.83;;
8887;SDS011;4480;52.370;9.748;2023-04-10T01:22:59;57.95;;;34.85;;
8887;SDS011;4480;52.370;9.748;2023-04-10T01:25:47;57.33;;;36.28;;
8887;SDS011;4480;52.370;9.748;2023-04-10T01:28:27;73.10;;;37.15;;
8887;SDS011;4480;52.370;9.748;2023-04-10T01:31:09;54.95;;;38.05;;
8887;SDS011;4480;52.370;9.748;2023-04-10T01:33:41;59.80;;;37.15;;
8887;SDS011;4480;52.370;9.748;2023-04-10T01:36:13;54.13;;;34.45;;
8887;SDS011;4480;52.370;9.748;2023-04-10T01:38:47;68.43;;;38.10;;
8887;SDS011;4480;52.370;9.748;2023-04-10T01:41:17;57.03;;;35.42;;
8887;SDS011;4480;52.370;9.748;2023-04-10T01:43:46;56.08;;;34.92;;
8887;SDS011;4480;52.370;9.748;2023-04-10T01:46:17;60.25;;;37.33;;
8887;SDS011;4480;52.370;9.748;2023-04-10T01:48:45;55.40;;;34.63;;
8887;SDS011;4480;52.370;9.748;2023-04-10T01:51:14;55.40;;;36.17;;
8887;SDS011;4480;52.370;9.748;2023-04-10T01:53:42;59.17;;;36.55;;
8887;SDS011;4480;52.370;9.748;2023-04-10T01:56:11;54.30;;;36.70;;
8887;SDS011;4480;52.370;9.748;2023-04-10T01:58:38;57.85;;;37.33;;
8887;SDS011;4480;52.370;9.748;2023-04-10T02:01:06;57.28;;;34.65;;
8887;SDS011;4480;52.370;9.748;2023-04-10T02:03:34;62.08;;;36.67;;
8887;SDS011;4480;52.370;9.748;2023-04-10T02:06:05;56.80;;;35.50;;
8887;SDS011;4480;52.370;9.748;2023-04-10T02:08:42;56.35;;;35.58;;
8887;SDS011;4480;52.370;9.748;2023-04-10T02:11:16;46.47;;;33.47;;
8887;SDS011;4480;52.370;9.748;2023-04-10T02:13:51;53.35;;;33.83;;
8887;SDS011;4480;52.370;9.748;2023-04-10T02:16:22;51.55;;;33.60;;
8887;SDS011;4480;52.370;9.748;2023-04-10T02:18:49;58.30;;;35.00;;
8887;SDS011;4480;52.370;9.748;2023-04-10T02:21:17;51.60;;;33.70;;
8887;SDS011;4480;52.370;9.748;2023-04-10T02:23:44;56.97;;;37.80;;
8887;SDS011;4480;52.370;9.748;2023-04-10T02:26:11;50.53;;;33.67;;
8887;SDS011;4480;52.370;9.748;2023-04-10T02:28:38;51.92;;;36.83;;
8887;SDS011;4480;52.370;9.748;2023-04-10T02:31:05;54.50;;;35.80;;
8887;SDS011;4480;52.370;9.748;2023-04-10T02:33:33;51.58;;;34.28;;
8887;SDS011;4480;52.370;9.748;2023-04-10T02:36:00;51.22;;;33.05;;
8887;SDS011;4480;52.370;9.748;2023-04-10T02:38:27;52.63;;;34.20;;
8887;SDS011;4480;52.370;9.748;2023-04-10T02:40:54;53.00;;;33.45;;
8887;SDS011;4480;52.370;9.748;2023-04-10T02:43:20;57.30;;;35.13;;
8887;SDS011;4480;52.370;9.748;2023-04-10T02:45:47;45.95;;;31.92;;
8887;SDS011;4480;52.370;9.748;2023-04-10T02:48:15;48.08;;;30.65;;
8887;SDS011;4480;52.370;9.748;2023-04-10T02:50:43;48.28;;;31.25;;
8887;SDS011;4480;52.370;9.748;2023-04-10T02:53:12;51.03;;;33.00;;
8887;SDS011;4480;52.370;9.748;2023-04-10T02:55:39;47.75;;;31.20;;
8887;SDS011;4480;52.370;9.748;2023-04-10T02:58:05;45.80;;;30.60;;
8887;SDS011;4480;52.370;9.748;2023-04-10T03:00:32;48.08;;;31.13;;
8887;SDS011;4480;52.370;9.748;2023-04-10T03:02:59;49.28;;;33.42;;
8887;SDS011;4480;52.370;9.748;2023-04-10T03:05:26;53.05;;;34.03;;
8887;SDS011;4480;52.370;9.748;2023-04-10T03:07:54;48.15;;;31.77;;
8887;SDS011;4480;52.370;9.748;2023-04-10T03:10:21;41.45;;;29.23;;
8887;SDS011;4480;52.370;9.748;2023-04-10T03:12:48;46.65;;;30.13;;
8887;SDS011;4480;52.370;9.748;2023-04-10T03:15:15;49.60;;;32.45;;
8887;SDS011;4480;52.370;9.748;2023-04-10T03:17:42;50.53;;;32.40;;
8887;SDS011;4480;52.370;9.748;2023-04-10T03:20:09;49.63;;;31.73;;
8887;SDS011;4480;52.370;9.748;2023-04-10T03:22:37;43.88;;;31.63;;
8887;SDS011;4480;52.370;9.748;2023-04-10T03:25:05;44.50;;;31.50;;
8887;SDS011;4480;52.370;9.748;2023-04-10T03:27:32;46.83;;;29.88;;
8887;SDS011;4480;52.370;9.748;2023-04-10T03:29:59;49.50;;;30.70;;
8887;SDS011;4480;52.370;9.748;2023-04-10T03:32:26;46.13;;;29.65;;
8887;SDS011;4480;52.370;9.748;2023-04-10T03:34:55;48.30;;;30.83;;
8887;SDS011;4480;52.370;9.748;2023-04-10T03:37:22;48.97;;;30.73;;
8887;SDS011;4480;52.370;9.748;2023-04-10T03:39:49;45.78;;;29.05;;
8887;SDS011;4480;52.370;9.748;2023-04-10T03:42:17;40.28;;;28.42;;
8887;SDS011;4480;52.370;9.748;2023-04-10T03:44:44;47.97;;;29.98;;
8887;SDS011;4480;52.370;9.748;2023-04-10T03:47:11;45.20;;;30.08;;
8887;SDS011;4480;52.370;9.748;2023-04-10T03:49:37;43.72;;;27.88;;
8887;SDS011;4480;52.370;9.748;2023-04-10T03:52:04;43.63;;;29.35;;
8887;SDS011;4480;52.370;9.748;2023-04-10T03:54:31;46.85;;;30.15;;
8887;SDS011;4480;52.370;9.748;2023-04-10T03:56:58;49.72;;;29.95;;
8887;SDS011;4480;52.370;9.748;2023-04-10T03:59:27;47.33;;;29.13;;
8887;SDS011;4480;52.370;9.748;2023-04-10T04:01:54;41.70;;;28.08;;
8887;SDS011;4480;52.370;9.748;2023-04-10T04:04:20;39.28;;;27.70;;
8887;SDS011;4480;52.370;9.748;2023-04-10T04:06:47;45.50;;;28.85;;
8887;SDS011;4480;52.370;9.748;2023-04-10T04:11:31;43.13;;;28.38;;
8887;SDS011;4480;52.370;9.748;2023-04-10T04:13:58;43.38;;;28.88;;
8887;SDS011;4480;52.370;9.748;2023-04-10T04:16:25;39.72;;;27.33;;
8887;SDS011;4480;52.370;9.748;2023-04-10T04:18:52;45.72;;;28.70;;
8887;SDS011;4480;52.370;9.748;2023-04-10T04:21:19;44.40;;;28.83;;
8887;SDS011;4480;52.370;9.748;2023-04-10T04:23:45;42.10;;;29.83;;
8887;SDS011;4480;52.370;9.748;2023-04-10T04:26:12;42.83;;;29.25;;
8887;SDS011;4480;52.370;9.748;2023-04-10T04:28:40;45.58;;;30.02;;
8887;SDS011;4480;52.370;9.748;2023-04-10T04:31:07;46.38;;;28.30;;
8887;SDS011;4480;52.370;9.748;2023-04-10T04:33:34;44.15;;;29.70;;
8887;SDS011;4480;52.370;9.748;2023-04-10T04:36:01;39.03;;;26.65;;
8887;SDS011;4480;52.370;9.748;2023-04-10T04:38:27;42.13;;;28.85;;
8887;SDS011;4480;52.370;9.748;2023-04-10T04:40:54;41.72;;;27.23;;
8887;SDS011;4480;52.370;9.748;2023-04-10T04:43:21;36.33;;;24.95;;
8887;SDS011;4480;52.370;9.748;2023-04-10T04:45:49;37.90;;;25.92;;
8887;SDS011;4480;52.370;9.748;2023-04-10T04:48:16;42.45;;;28.23;;
8887;SDS011;4480;52.370;9.748;2023-04-10T04:50:43;44.42;;;28.30;;
8887;SDS011;4480;52.370;9.748;2023-04-10T04:53:09;34.85;;;24.45;;
8887;SDS011;4480;52.370;9.748;2023-04-10T04:55:36;42.13;;;27.40;;
8887;SDS011;4480;52.370;9.748;2023-04-10T04:58:03;39.97;;;26.65;;
8887;SDS011;4480;52.370;9.748;2023-04-10T05:00:30;42.30;;;28.33;;
8887;SDS011;4480;52.370;9.748;2023-04-10T05:02:58;35.90;;;25.13;;
8887;SDS011;4480;52.370;9.748;2023-04-10T05:05:25;36.80;;;25.02;;
8887;SDS011;4480;52.370;9.748;2023-04-10T05:07:51;36.30;;;25.10;;
8887;SDS011;4480;52.370;9.748;2023-04-10T05:10:19;33.40;;;23.27;;
8887;SDS011;4480;52.370;9.748;2023-04-10T05:12:45;41.85;;;25.45;;
8887;SDS011;4480;52.370;9.748;2023-04-10T05:15:12;43.45;;;27.13;;
8887;SDS011;4480;52.370;9.748;2023-04-10T05:17:39;34.63;;;25.67;;
8887;SDS011;4480;52.370;9.748;2023-04-10T05:20:08;37.65;;;25.98;;
8887;SDS011;4480;52.370;9.748;2023-04-10T05:22:35;38.72;;;25.58;;
8887;SDS011;4480;52.370;9.748;2023-04-10T05:25:02;37.20;;;25.13;;
8887;SDS011;4480;52.370;9.748;2023-04-10T05:27:30;35.00;;;25.13;;
8887;SDS011;4480;52.370;9.748;2023-04-10T05:29:56;31.80;;;23.75;;
8887;SDS011;4480;52.370;9.748;2023-04-10T05:32:23;29.63;;;22.10;;
8887;SDS011;4480;52.370;9.748;2023-04-10T05:34:50;33.03;;;23.58;;
8887;SDS011;4480;52.370;9.748;2023-04-10T05:37:18;35.08;;;24.98;;
8887;SDS011;4480;52.370;9.748;2023-04-10T05:39:45;35.85;;;23.33;;
8887;SDS011;4480;52.370;9.748;2023-04-10T05:42:11;39.78;;;25.40;;
8887;SDS011;4480;52.370;9.748;2023-04-10T05:44:38;36.80;;;24.55;;
8887;SDS011;4480;52.370;9.748;2023-04-10T05:47:05;34.15;;;24.88;;
8887;SDS011;4480;52.370;9.748;2023-04-10T05:49:32;34.85;;;24.50;;
8887;SDS011;4480;52.370;9.748;2023-04-10T05:51:59;32.22;;;23.25;;
8887;SDS011;4480;52.370;9.748;2023-04-10T05:54:27;34.65;;;24.30;;
8887;SDS011;4480;52.370;9.748;2023-04-10T05:56:54;33.72;;;23.42;;
8887;SDS011;4480;52.370;9.748;2023-04-10T05:59:20;30.80;;;22.60;;
8887;SDS011;4480;52.370;9.748;2023-04-10T06:01:48;30.05;;;21.08;;
8887;SDS011;4480;52.370;9.748;2023-04-10T06:04:15;31.98;;;20.88;;
8887;SDS011;4480;52.370;9.748;2023-04-10T06:06:42;34.17;;;21.02;;
8887;SDS011;4480;52.370;9.748;2023-04-10T06:09:09;32.70;;;21.00;;
8887;SDS011;4480;52.370;9.748;2023-04-10T06:11:37;27.73;;;20.85;;
8887;SDS011;4480;52.370;9.748;2023-04-10T06:14:04;33.30;;;20.95;;
8887;SDS011;4480;52.370;9.748;2023-04-10T06:16:30;29.17;;;21.48;;
8887;SDS011;4480;52.370;9.748;2023-04-10T06:18:57;31.95;;;21.98;;
8887;SDS011;4480;52.370;9.748;2023-04-10T06:21:24;27.92;;;21.52;;
8887;SDS011;4480;52.370;9.748;2023-04-10T06:23:51;28.75;;;22.10;;
8887;SDS011;4480;52.370;9.748;2023-04-10T06:26:18;30.27;;;20.75;;
8887;SDS011;4480;52.370;9.748;2023-04-10T06:28:46;30.08;;;21.10;;
8887;SDS011;4480;52.370;9.748;2023-04-10T06:31:13;28.80;;;20.83;;
8887;SDS011;4480;52.370;9.748;2023-04-10T06:33:39;32.25;;;22.38;;
8887;SDS011;4480;52.370;9.748;2023-04-10T06:36:06;29.25;;;20.70;;
8887;SDS011;4480;52.370;9.748;2023-04-10T06:38:34;26.65;;;21.30;;
8887;SDS011;4480;52.370;9.748;2023-04-10T06:41:02;29.02;;;20.38;;
8887;SDS011;4480;52.370;9.748;2023-04-10T06:43:31;24.83;;;18.42;;
8887;SDS011;4480;52.370;9.748;2023-04-10T06:46:00;26.77;;;18.95;;
8887;SDS011;4480;52.370;9.748;2023-04-10T06:48:28;23.35;;;17.38;;
8887;SDS011;4480;52.370;9.748;2023-04-10T06:50:55;25.77;;;19.42;;
8887;SDS011;4480;52.370;9.748;2023-04-10T06:53:24;28.35;;;18.88;;
8887;SDS011;4480;52.370;9.748;2023-04-10T06:55:51;23.20;;;18.63;;
8887;SDS011;4480;52.370;9.748;2023-04-10T06:58:18;24.60;;;18.75;;
8887;SDS011;4480;52.370;9.748;2023-04-10T07:00:45;20.67;;;17.08;;
8887;SDS011;4480;52.370;9.748;2023-04-10T07:03:13;25.05;;;18.02;;
8887;SDS011;4480;52.370;9.748;2023-04-10T07:05:40;22.52;;;16.85;;
8887;SDS011;4480;52.370;9.748;2023-04-10T07:08:07;21.42;;;16.85;;
8887;SDS011;4480;52.370;9.748;2023-04-10T07:10:34;21.85;;;16.88;;
8887;SDS011;4480;52.370;9.748;2023-04-10T07:13:01;19.27;;;15.50;;
8887;SDS011;4480;52.370;9.748;2023-04-10T07:15:28;19.53;;;16.57;;
8887;SDS011;4480;52.370;9.748;2023-04-10T07:17:55;19.93;;;15.87;;
8887;SDS011;4480;52.370;9.748;2023-04-10T07:20:23;20.17;;;15.20;;
8887;SDS011;4480;52.370;9.748;2023-04-10T07:22:50;17.53;;;15.43;;
8887;SDS011;4480;52.370;9.748;2023-04-10T07:25:17;18.47;;;14.47;;
8887;SDS011;4480;52.370;9.748;2023-04-10T07:27:44;18.87;;;14.30;;
8887;SDS011;4480;52.370;9.748;2023-04-10T07:30:10;19.20;;;15.77;;
8887;SDS011;4480;52.370;9.748;2023-04-10T07:32:37;19.50;;;14.93;;
8887;SDS011;4480;52.370;9.748;2023-04-10T07:35:06;21.40;;;16.40;;
8887;SDS011;4480;52.370;9.748;2023-04-10T07:37:35;20.83;;;15.93;;
8887;SDS011;4480;52.370;9.748;2023-04-10T07:40:04;17.77;;;13.63;;
8887;SDS011;4480;52.370;9.748;2023-04-10T07:42:31;16.13;;;14.37;;
8887;SDS011;4480;52.370;9.748;2023-04-10T07:44:58;17.57;;;13.80;;
8887;SDS011;4480;52.370;9.748;2023-04-10T07:47:25;22.00;;;14.37;;
8887;SDS011;4480;52.370;9.748;2023-04-10T07:49:52;18.33;;;13.50;;
8887;SDS011;4480;52.370;9.748;2023-04-10T07:52:19;16.80;;;14.00;;
8887;SDS011;4480;52.370;9.748;2023-04-10T07:54:47;18.40;;;14.50;;
8887;SDS011;4480;52.370;9.748;2023-04-10T07:57:14;18.33;;;13.23;;
8887;SDS011;4480;52.370;9.748;2023-04-10T07:59:41;18.90;;;14.10;;
8887;SDS011;4480;52.370;9.748;2023-04-10T08:02:08;17.87;;;13.37;;
8887;SDS011;4480;52.370;9.748;2023-04-10T08:04:35;15.47;;;12.63;;
8887;SDS011;4480;52.370;9.748;2023-04-10T08:07:02;18.30;;;13.57;;
8887;SDS011;4480;52.370;9.748;2023-04-10T08:09:29;14.93;;;12.50;;
8887;SDS011;4480;52.370;9.748;2023-04-10T08:11:57;14.53;;;12.63;;
8887;SDS011;4480;52.370;9.748;2023-04-10T08:14:23;17.83;;;13.83;;
8887;SDS011;4480;52.370;9.748;2023-04-10T08:16:50;13.30;;;11.90;;
8887;SDS011;4480;52.370;9.748;2023-04-10T08:19:17;14.43;;;12.13;;
8887;SDS011;4480;52.370;9.748;2023-04-10T08:21:44;13.87;;;12.30;;
8887;SDS011;4480;52.370;9.748;2023-04-10T08:24:11;17.63;;;13.70;;
8887;SDS011;4480;52.370;9.748;2023-04-10T08:26:37;15.00;;;11.40;;
8887;SDS011;4480;52.370;9.748;2023-04-10T08:29:06;13.10;;;11.80;;
8887;SDS011;4480;52.370;9.748;2023-04-10T08:31:32;15.50;;;12.80;;
8887;SDS011;4480;52.370;9.748;2023-04-10T08:33:59;14.50;;;12.20;;
8887;SDS011;4480;52.370;9.748;2023-04-10T08:36:28;15.37;;;12.23;;
8887;SDS011;4480;52.370;9.748;2023-04-10T08:38:55;14.60;;;11.53;;
8887;SDS011;4480;52.370;9.748;2023-04-10T08:41:22;14.77;;;10.97;;
8887;SDS011;4480;52.370;9.748;2023-04-10T08:43:49;14.23;;;11.87;;
8887;SDS011;4480;52.370;9.748;2023-04-10T08:46:17;15.83;;;12.87;;
8887;SDS011;4480;52.370;9.748;2023-04-10T08:48:45;13.90;;;11.67;;
8887;SDS011;4480;52.370;9.748;2023-04-10T08:51:18;15.70;;;12.23;;
8887;SDS011;4480;52.370;9.748;2023-04-10T08:53:47;13.00;;;11.30;;
8887;SDS011;4480;52.370;9.748;2023-04-10T08:56:16;13.93;;;11.47;;
8887;SDS011;4480;52.370;9.748;2023-04-10T08:58:44;13.23;;;11.43;;
8887;SDS011;4480;52.370;9.748;2023-04-10T09:01:12;14.40;;;11.50;;
8887;SDS011;4480;52.370;9.748;2023-04-10T09:03:41;13.20;;;11.80;;
8887;SDS011;4480;52.370;9.748;2023-04-10T09:06:08;15.10;;;11.87;;
8887;SDS011;4480;52.370;9.748;2023-04-10T09:08:34;13.17;;;11.17;;
8887;SDS011;4480;52.370;9.748;2023-04-10T09:11:01;13.83;;;11.20;;
8887;SDS011;4480;52.370;9.748;2023-04-10T09:13:35;11.57;;;10.37;;
8887;SDS011;4480;52.370;9.748;2023-04-10T09:16:04;15.27;;;11.70;;
8887;SDS011;4480;52.370;9.748;2023-04-10T09:18:42;11.93;;;10.60;;
8887;SDS011;4480;52.370;9.748;2023-04-10T09:21:11;13.37;;;10.83;;
8887;SDS011;4480;52.370;9.748;2023-04-10T09:23:40;11.37;;;9.70;;
8887;SDS011;4480;52.370;9.748;2023-04-10T09:26:20;14.63;;;12.10;;
8887;SDS011;4480;52.370;9.748;2023-04-10T09:28:54;12.20;;;10.37;;
8887;SDS011;4480;52.370;9.748;2023-04-10T09:31:26;13.40;;;10.80;;
8887;SDS011;4480;52.370;9.748;2023-04-10T09:34:06;13.23;;;9.63;;
8887;SDS011;4480;52.370;9.748;2023-04-10T09:36:37;11.40;;;10.27;;
8887;SDS011;4480;52.370;9.748;2023-04-10T09:39:05;10.33;;;9.00;;
8887;SDS011;4480;52.370;9.748;2023-04-10T09:41:32;9.60;;;8.60;;
8887;SDS011;4480;52.370;9.748;2023-04-10T09:44:05;11.23;;;9.87;;
8887;SDS011;4480;52.370;9.748;2023-04-10T09:46:34;11.43;;;10.17;;
8887;SDS011;4480;52.370;9.748;2023-04-10T09:49:01;10.63;;;9.53;;
8887;SDS011;4480;52.370;9.748;2023-04-10T09:51:32;12.03;;;10.67;;
8887;SDS011;4480;52.370;9.748;2023-04-10T09:54:01;11.03;;;9.63;;
8887;SDS011;4480;52.370;9.748;2023-04-10T09:56:29;10.93;;;9.80;;
8887;SDS011;4480;52.370;9.748;2023-04-10T09:58:57;11.53;;;10.30;;
8887;SDS011;4480;52.370;9.748;2023-04-10T10:01:25;12.10;;;10.40;;
8887;SDS011;4480;52.370;9.748;2023-04-10T10:03:54;12.43;;;11.00;;
8887;SDS011;4480;52.370;9.748;2023-04-10T10:06:25;15.30;;;12.63;;
8887;SDS011;4480;52.370;9.748;2023-04-10T10:08:54;18.77;;;16.73;;
8887;SDS011;4480;52.370;9.748;2023-04-10T10:11:22;11.30;;;10.07;;
8887;SDS011;4480;52.370;9.748;2023-04-10T10:13:51;16.80;;;13.40;;
8887;SDS011;4480;52.370;9.748;2023-04-10T10:16:19;15.10;;;12.20;;
8887;SDS011;4480;52.370;9.748;2023-04-10T10:18:50;17.13;;;13.93;;
8887;SDS011;4480;52.370;9.748;2023-04-10T10:21:22;10.27;;;9.17;;
8887;SDS011;4480;52.370;9.748;2023-04-10T10:23:50;11.10;;;9.90;;
8887;SDS011;4480;52.370;9.748;2023-04-10T10:26:20;9.87;;;8.87;;
8887;SDS011;4480;52.370;9.748;2023-04-10T10:28:48;8.43;;;7.20;;
8887;SDS011;4480;52.370;9.748;2023-04-10T10:31:16;8.10;;;7.30;;
8887;SDS011;4480;52.370;9.748;2023-04-10T10:33:44;8.00;;;7.20;;
8887;SDS011;4480;52.370;9.748;2023-04-10T10:36:12;8.00;;;7.20;;
8887;SDS011;4480;52.370;9.748;2023-04-10T10:38:43;8.40;;;7.47;;
8887;SDS011;4480;52.370;9.748;2023-04-10T10:41:17;9.10;;;7.40;;
8887;SDS011;4480;52.370;9.748;2023-04-10T10:43:51;9.43;;;7.57;;
8887;SDS011;4480;52.370;9.748;2023-04-10T10:46:33;8.83;;;7.93;;
8887;SDS011;4480;52.370;9.748;2023-04-10T10:49:06;8.30;;;7.43;;
8887;SDS011;4480;52.370;9.748;2023-04-10T10:51:42;8.97;;;8.07;;
8887;SDS011;4480;52.370;9.748;2023-04-10T10:54:29;8.90;;;8.00;;
8887;SDS011;4480;52.370;9.748;2023-04-10T10:56:57;10.50;;;8.93;;
8887;SDS011;4480;52.370;9.748;2023-04-10T11:02:22;9.60;;;8.30;;
8887;SDS011;4480;52.370;9.748;2023-04-10T11:04:49;9.57;;;7.77;;
8887;SDS011;4480;52.370;9.748;2023-04-10T11:07:16;9.30;;;7.87;;
8887;SDS011;4480;52.370;9.748;2023-04-10T11:09:48;9.80;;;8.03;;
8887;SDS011;4480;52.370;9.748;2023-04-10T11:12:18;9.33;;;8.03;;
8887;SDS011;4480;52.370;9.748;2023-04-10T11:14:55;9.27;;;7.87;;
8887;SDS011;4480;52.370;9.748;2023-04-10T11:20:11;8.93;;;7.90;;
8887;SDS011;4480;52.370;9.748;2023-04-10T11:31:17;8.97;;;8.10;;
8887;SDS011;4480;52.370;9.748;2023-04-10T11:33:46;9.27;;;8.33;;
8887;SDS011;4480;52.370;9.748;2023-04-10T11:36:14;9.43;;;8.37;;
8887;SDS011;4480;52.370;9.748;2023-04-10T11:38:52;9.03;;;7.63;;
8887;SDS011;4480;52.370;9.748;2023-04-10T11:41:20;8.20;;;7.40;;
8887;SDS011;4480;52.370;9.748;2023-04-10T11:43:52;14.60;;;7.90;;
8887;SDS011;4480;52.370;9.748;2023-04-10T11:46:19;9.30;;;7.40;;
8887;SDS011;4480;52.370;9.748;2023-04-10T11:48:46;8.83;;;7.57;;
8887;SDS011;4480;52.370;9.748;2023-04-10T11:51:13;8.83;;;7.50;;
8887;SDS011;4480;52.370;9.748;2023-04-10T11:53:40;9.70;;;8.70;;
8887;SDS011;4480;52.370;9.748;2023-04-10T11:56:17;9.67;;;8.27;;
8887;SDS011;4480;52.370;9.748;2023-04-10T11:58:46;9.40;;;8.40;;
8887;SDS011;4480;52.370;9.748;2023-04-10T12:01:21;9.70;;;8.70;;
8887;SDS011;4480;52.370;9.748;2023-04-10T12:03:48;10.33;;;8.17;;
8887;SDS011;4480;52.370;9.748;2023-04-10T12:06:15;9.43;;;7.73;;
8887;SDS011;4480;52.370;9.748;2023-04-10T12:08:44;10.67;;;7.93;;
8887;SDS011;4480;52.370;9.748;2023-04-10T12:11:13;8.47;;;7.50;;
8887;SDS011;4480;52.370;9.748;2023-04-10T12:13:42;7.03;;;6.33;;
8887;SDS011;4480;52.370;9.748;2023-04-10T12:16:09;8.33;;;7.00;;
8887;SDS011;4480;52.370;9.748;2023-04-10T12:18:37;7.73;;;6.93;;
8887;SDS011;4480;52.370;9.748;2023-04-10T12:21:05;6.80;;;5.63;;
8887;SDS011;4480;52.370;9.748;2023-04-10T12:23:32;8.10;;;6.40;;
8887;SDS011;4480;52.370;9.748;2023-04-10T12:26:05;6.77;;;6.07;;
8887;SDS011;4480;52.370;9.748;2023-04-10T12:28:38;6.33;;;5.50;;
8887;SDS011;4480;52.370;9.748;2023-04-10T12:31:06;7.03;;;6.33;;
8887;SDS011;4480;52.370;9.748;2023-04-10T12:33:33;6.87;;;6.17;;
8887;SDS011;4480;52.370;9.748;2023-04-10T12:36:02;6.40;;;5.80;;
8887;SDS011;4480;52.370;9.748;2023-04-10T12:38:35;6.70;;;6.07;;
8887;SDS011;4480;52.370;9.748;2023-04-10T12:41:03;6.50;;;5.80;;
8887;SDS011;4480;52.370;9.748;2023-04-10T12:43:31;6.90;;;6.20;;
8887;SDS011;4480;52.370;9.748;2023-04-10T12:46:00;6.43;;;5.83;;
8887;SDS011;4480;52.370;9.748;2023-04-10T12:48:27;6.87;;;6.17;;
8887;SDS011;4480;52.370;9.748;2023-04-10T12:50:54;7.30;;;5.70;;
8887;SDS011;4480;52.370;9.748;2023-04-10T12:53:23;6.30;;;5.70;;
8887;SDS011;4480;52.370;9.748;2023-04-10T12:56:00;6.67;;;5.97;;
8887;SDS011;4480;52.370;9.748;2023-04-10T12:58:29;6.43;;;5.70;;
8887;SDS011;4480;52.370;9.748;2023-04-10T13:00:56;7.00;;;6.10;;
8887;SDS011;4480;52.370;9.748;2023-04-10T13:03:24;6.47;;;5.77;;
8887;SDS011;4480;52.370;9.748;2023-04-10T13:05:51;7.00;;;5.60;;
8887;SDS011;4480;52.370;9.748;2023-04-10T13:08:19;6.50;;;5.90;;
8887;SDS011;4480;52.370;9.748;2023-04-10T13:10:47;7.10;;;6.40;;
8887;SDS011;4480;52.370;9.748;2023-04-10T13:13:15;6.47;;;5.70;;
8887;SDS011;4480;52.370;9.748;2023-04-10T13:15:42;6.70;;;6.00;;
8887;SDS011;4480;52.370;9.748;2023-04-10T13:18:09;6.87;;;6.27;;
8887;SDS011;4480;52.370;9.748;2023-04-10T13:20:36;6.60;;;6.00;;
8887;SDS011;4480;52.370;9.748;2023-04-10T13:23:03;7.00;;;6.30;;
8887;SDS011;4480;52.370;9.748;2023-04-10T13:25:30;6.73;;;5.50;;
8887;SDS011;4480;52.370;9.748;2023-04-10T13:28:00;7.30;;;5.93;;
8887;SDS011;4480;52.370;9.748;2023-04-10T13:30:33;6.30;;;5.37;;
8887;SDS011;4480;52.370;9.748;2023-04-10T13:33:01;5.93;;;5.33;;
8887;SDS011;4480;52.370;9.748;2023-04-10T13:35:27;5.73;;;5.23;;
8887;SDS011;4480;52.370;9.748;2023-04-10T13:37:54;5.63;;;5.13;;
8887;SDS011;4480;52.370;9.748;2023-04-10T13:40:21;4.90;;;4.40;;
8887;SDS011;4480;52.370;9.748;2023-04-10T13:42:48;5.60;;;5.00;;
8887;SDS011;4480;52.370;9.748;2023-04-10T13:45:16;5.90;;;5.40;;
8887;SDS011;4480;52.370;9.748;2023-04-10T13:47:43;6.53;;;5.30;;
8887;SDS011;4480;52.370;9.748;2023-04-10T13:50:10;5.53;;;4.97;;
8887;SDS011;4480;52.370;9.748;2023-04-10T13:52:37;5.60;;;5.10;;
8887;SDS011;4480;52.370;9.748;2023-04-10T13:55:04;6.33;;;4.80;;
8887;SDS011;4480;52.370;9.748;2023-04-10T13:57:32;4.80;;;4.40;;
8887;SDS011;4480;52.370;9.748;2023-04-10T13:59:58;7.57;;;6.87;;
8887;SDS011;4480;52.370;9.748;2023-04-10T14:02:27;7.13;;;6.43;;
8887;SDS011;4480;52.370;9.748;2023-04-10T14:04:54;6.27;;;5.33;;
8887;SDS011;4480;52.370;9.748;2023-04-10T14:07:20;7.83;;;5.03;;
8887;SDS011;4480;52.370;9.748;2023-04-10T14:09:47;5.37;;;4.80;;
8887;SDS011;4480;52.370;9.748;2023-04-10T14:12:14;4.80;;;4.40;;
8887;SDS011;4480;52.370;9.748;2023-04-10T14:14:41;4.23;;;3.83;;
8887;SDS011;4480;52.370;9.748;2023-04-10T14:17:08;4.60;;;4.20;;
8887;SDS011;4480;52.370;9.748;2023-04-10T14:19:36;4.43;;;3.93;;
8887;SDS011;4480;52.370;9.748;2023-04-10T14:22:03;4.57;;;3.97;;
8887;SDS011;4480;52.370;9.748;2023-04-10T14:24:30;4.90;;;4.50;;
8887;SDS011;4480;52.370;9.748;2023-04-10T14:26:57;6.13;;;4.23;;
8887;SDS011;4480;52.370;9.748;2023-04-10T14:29:25;3.97;;;3.57;;
8887;SDS011;4480;52.370;9.748;2023-04-10T14:31:52;6.37;;;5.77;;
8887;SDS011;4480;52.370;9.748;2023-04-10T14:34:19;4.50;;;4.07;;
8887;SDS011;4480;52.370;9.748;2023-04-10T14:36:47;4.80;;;3.90;;
8887;SDS011;4480;52.370;9.748;2023-04-10T14:39:14;4.43;;;4.03;;
8887;SDS011;4480;52.370;9.748;2023-04-10T14:41:41;4.80;;;4.40;;
8887;SDS011;4480;52.370;9.748;2023-04-10T14:44:07;4.60;;;4.17;;
8887;SDS011;4480;52.370;9.748;2023-04-10T14:46:34;4.50;;;4.10;;
8887;SDS011;4480;52.370;9.748;2023-04-10T14:49:01;5.00;;;3.93;;
8887;SDS011;4480;52.370;9.748;2023-04-10T14:51:28;4.57;;;4.17;;
8887;SDS011;4480;52.370;9.748;2023-04-10T14:53:57;7.10;;;4.60;;
8887;SDS011;4480;52.370;9.748;2023-04-10T14:56:23;4.87;;;4.47;;
8887;SDS011;4480;52.370;9.748;2023-04-10T14:58:50;4.03;;;3.63;;
8887;SDS011;4480;52.370;9.748;2023-04-10T15:01:17;4.90;;;4.40;;
8887;SDS011;4480;52.370;9.748;2023-04-10T15:03:45;4.77;;;4.30;;
8887;SDS011;4480;52.370;9.748;2023-04-10T15:06:12;5.53;;;4.10;;
8887;SDS011;4480;52.370;9.748;2023-04-10T15:08:40;4.10;;;3.58;;
8887;SDS011;4480;52.370;9.748;2023-04-10T15:11:08;5.40;;;4.63;;
8887;SDS011;4480;52.370;9.748;2023-04-10T15:13:35;4.37;;;3.97;;
8887;SDS011;4480;52.370;9.748;2023-04-10T15:16:03;4.07;;;3.60;;
8887;SDS011;4480;52.370;9.748;2023-04-10T15:18:32;5.33;;;4.83;;